createdAt,value
2018-06-23T00:00:07.090Z,22.8
2018-06-23T00:00:57.407Z,22.8
2018-06-23T00:01:47.261Z,22.8
2018-06-23T00:02:37.363Z,22.8
2018-06-23T00:03:27.378Z,22.8
2018-06-23T00:04:17.186Z,22.8
2018-06-23T00:05:06.607Z,22.8
2018-06-23T00:05:57.554Z,22.8
2018-06-23T00:06:46.843Z,22.8
2018-06-23T00:07:37.460Z,22.8
2018-06-23T00:08:27.169Z,22.8
2018-06-23T00:09:17.827Z,22.8
2018-06-23T00:10:08.123Z,22.8
2018-06-23T00:10:57.670Z,22.8
2018-06-23T00:11:47.683Z,22.8
2018-06-23T00:12:37.730Z,22.8
2018-06-23T00:13:27.289Z,22.8
2018-06-23T00:14:17.362Z,22.8
2018-06-23T00:15:07.951Z,22.8
2018-06-23T00:15:58.059Z,22.8
2018-06-23T00:16:47.822Z,22.8
2018-06-23T00:17:38.502Z,22.8
2018-06-23T00:18:27.655Z,22.8
2018-06-23T00:19:18.601Z,22.8
2018-06-23T00:20:08.642Z,22.8
2018-06-23T00:20:58.411Z,22.8
2018-06-23T00:21:48.489Z,22.8
2018-06-23T00:22:38.839Z,22.8
2018-06-23T00:23:27.788Z,22.8
2018-06-23T00:24:18.982Z,22.8
2018-06-23T00:25:08.733Z,22.8
2018-06-23T00:25:59.085Z,22.8
2018-06-23T00:26:48.543Z,22.8
2018-06-23T00:27:38.096Z,22.8
2018-06-23T00:28:28.731Z,22.8
2018-06-23T00:29:19.347Z,22.8
2018-06-23T00:30:08.835Z,22.8
2018-06-23T00:30:59.156Z,22.8
2018-06-23T00:31:49.580Z,22.8
2018-06-23T00:32:39.269Z,22.8
2018-06-23T00:33:28.831Z,22.8
2018-06-23T00:34:19.408Z,22.8
2018-06-23T00:35:09.794Z,22.8
2018-06-23T00:36:00.096Z,22.8
2018-06-23T00:36:50.200Z,22.8
2018-06-23T00:37:39.982Z,22.8
2018-06-23T00:38:29.473Z,22.8
2018-06-23T00:39:19.540Z,22.8
2018-06-23T00:40:09.871Z,22.8
2018-06-23T00:40:59.378Z,22.7
2018-06-23T00:41:49.703Z,22.8
2018-06-23T00:42:40.042Z,22.8
2018-06-23T00:43:30.098Z,22.8
2018-06-23T00:44:20.752Z,22.8
2018-06-23T00:45:10.792Z,22.8
2018-06-23T00:46:00.853Z,22.8
2018-06-23T00:46:50.903Z,22.7
2018-06-23T00:47:40.731Z,22.8
2018-06-23T00:48:30.214Z,22.8
2018-06-23T00:49:20.012Z,22.8
2018-06-23T00:50:10.623Z,22.7
2018-06-23T00:51:00.686Z,22.8
2018-06-23T00:51:50.533Z,22.7
2018-06-23T00:52:40.545Z,22.8
2018-06-23T00:53:30.858Z,22.7
2018-06-23T00:54:21.069Z,22.7
2018-06-23T00:55:11.581Z,22.7
2018-06-23T00:56:00.298Z,22.8
2018-06-23T00:56:50.097Z,22.7
2018-06-23T00:57:41.787Z,22.7
2018-06-23T00:58:30.300Z,22.7
2018-06-23T00:59:21.648Z,22.7
2018-06-23T01:00:11.208Z,22.7
2018-06-23T01:01:02.024Z,22.7
2018-06-23T01:01:51.795Z,22.7
2018-06-23T01:02:41.639Z,22.7
2018-06-23T01:03:31.662Z,22.7
2018-06-23T01:04:22.223Z,22.7
2018-06-23T01:05:11.292Z,22.7
2018-06-23T01:06:01.296Z,22.7
2018-06-23T01:06:52.158Z,22.7
2018-06-23T01:07:41.193Z,22.7
2018-06-23T01:08:31.545Z,22.7
2018-06-23T01:09:22.028Z,22.7
2018-06-23T01:10:11.429Z,22.7
2018-06-23T01:11:01.960Z,22.7
2018-06-23T01:11:50.992Z,22.7
2018-06-23T01:12:41.286Z,22.7
2018-06-23T01:13:32.213Z,22.7
2018-06-23T01:14:22.286Z,22.7
2018-06-23T01:15:11.781Z,22.7
2018-06-23T01:16:03.186Z,22.7
2018-06-23T01:16:52.407Z,22.7
2018-06-23T01:17:42.801Z,22.7
2018-06-23T01:18:32.561Z,22.7
2018-06-23T01:19:22.961Z,22.7
2018-06-23T01:20:11.879Z,22.7
2018-06-23T01:21:01.938Z,22.7
2018-06-23T01:21:53.119Z,22.7
2018-06-23T01:22:43.236Z,22.7
2018-06-23T01:23:32.983Z,22.7
2018-06-23T01:24:22.728Z,22.7
2018-06-23T01:25:13.388Z,22.7
2018-06-23T01:26:03.149Z,22.7
2018-06-23T01:26:52.398Z,22.7
2018-06-23T01:27:43.583Z,22.7
2018-06-23T01:28:32.517Z,22.6
2018-06-23T01:29:22.868Z,22.7
2018-06-23T01:30:12.947Z,22.7
2018-06-23T01:31:03.567Z,22.7
2018-06-23T01:31:53.912Z,22.7
2018-06-23T01:32:43.328Z,22.7
2018-06-23T01:33:34.036Z,22.7
2018-06-23T01:34:24.036Z,22.7
2018-06-23T01:35:13.924Z,22.7
2018-06-23T01:36:04.226Z,22.7
2018-06-23T01:36:53.740Z,22.7
2018-06-23T01:37:43.762Z,22.7
2018-06-23T01:38:33.270Z,22.7
2018-06-23T01:39:23.665Z,22.7
2018-06-23T01:40:13.677Z,22.7
2018-06-23T01:41:04.309Z,22.6
2018-06-23T01:41:53.269Z,22.6
2018-06-23T01:42:43.037Z,22.7
2018-06-23T01:43:34.807Z,22.7
2018-06-23T01:44:24.867Z,22.7
2018-06-23T01:45:14.652Z,22.6
2018-06-23T01:46:03.871Z,22.6
2018-06-23T01:46:53.904Z,22.7
2018-06-23T01:47:43.693Z,22.6
2018-06-23T01:48:34.936Z,22.7
2018-06-23T01:49:24.684Z,22.6
2018-06-23T01:50:14.197Z,22.7
2018-06-23T01:51:04.868Z,22.7
2018-06-23T01:51:55.672Z,22.6
2018-06-23T01:52:44.391Z,22.7
2018-06-23T01:53:35.038Z,22.7
2018-06-23T01:54:24.485Z,22.6
2018-06-23T01:55:15.311Z,22.7
2018-06-23T01:56:05.918Z,22.7
2018-06-23T01:56:55.633Z,22.6
2018-06-23T01:57:46.368Z,22.7
2018-06-23T01:58:35.428Z,22.6
2018-06-23T01:59:25.695Z,22.7
2018-06-23T02:00:14.689Z,22.6
2018-06-23T02:01:06.083Z,22.7
2018-06-23T02:01:55.343Z,22.6
2018-06-23T02:02:46.799Z,22.6
2018-06-23T02:03:36.810Z,22.6
2018-06-23T02:04:26.074Z,22.6
2018-06-23T02:05:15.329Z,22.6
2018-06-23T02:06:05.404Z,22.6
2018-06-23T02:06:56.317Z,22.6
2018-06-23T02:07:46.038Z,22.6
2018-06-23T02:08:36.621Z,22.6
2018-06-23T02:09:25.628Z,22.6
2018-06-23T02:10:15.412Z,22.6
2018-06-23T02:11:06.697Z,22.6
2018-06-23T02:11:56.917Z,22.6
2018-06-23T02:12:46.597Z,22.6
2018-06-23T02:13:36.745Z,22.6
2018-06-23T02:14:27.657Z,22.6
2018-06-23T02:15:16.277Z,22.6
2018-06-23T02:16:06.382Z,22.6
2018-06-23T02:16:57.479Z,22.6
2018-06-23T02:17:47.068Z,22.6
2018-06-23T02:18:37.937Z,22.6
2018-06-23T02:19:26.957Z,22.6
2018-06-23T02:20:17.002Z,22.6
2018-06-23T02:21:07.377Z,22.6
2018-06-23T02:21:57.345Z,22.6
2018-06-23T02:22:48.280Z,22.6
2018-06-23T02:23:37.737Z,22.6
2018-06-23T02:24:27.667Z,22.6
2018-06-23T02:25:18.139Z,22.6
2018-06-23T02:26:07.918Z,22.6
2018-06-23T02:26:58.039Z,22.6
2018-06-23T02:27:48.352Z,22.6
2018-06-23T02:28:37.631Z,22.6
2018-06-23T02:29:28.088Z,22.6
2018-06-23T02:30:17.444Z,22.6
2018-06-23T02:31:08.461Z,22.6
2018-06-23T02:31:58.508Z,22.6
2018-06-23T02:32:47.890Z,22.6
2018-06-23T02:33:39.150Z,22.6
2018-06-23T02:34:28.331Z,22.6
2018-06-23T02:35:19.006Z,22.6
2018-06-23T02:36:08.701Z,22.6
2018-06-23T02:36:58.573Z,22.6
2018-06-23T02:37:49.201Z,22.6
2018-06-23T02:38:39.220Z,22.6
2018-06-23T02:39:27.940Z,22.6
2018-06-23T02:40:18.487Z,22.6
2018-06-23T02:41:08.553Z,22.6
2018-06-23T02:41:59.479Z,22.6
2018-06-23T02:42:49.492Z,22.6
2018-06-23T02:43:39.411Z,22.6
2018-06-23T02:44:29.343Z,22.6
2018-06-23T02:45:20.006Z,22.6
2018-06-23T02:46:09.775Z,22.6
2018-06-23T02:46:59.061Z,22.6
2018-06-23T02:47:49.343Z,22.6
2018-06-23T02:48:39.435Z,22.6
2018-06-23T02:49:29.755Z,22.6
2018-06-23T02:50:20.087Z,22.6
2018-06-23T02:51:08.887Z,22.6
2018-06-23T02:51:59.636Z,22.6
2018-06-23T02:52:50.165Z,22.6
2018-06-23T02:53:39.465Z,22.6
2018-06-23T02:54:30.149Z,22.6
2018-06-23T02:55:20.503Z,22.6
2018-06-23T02:56:10.285Z,22.6
2018-06-23T02:56:59.554Z,22.6
2018-06-23T02:57:49.333Z,22.6
2018-06-23T02:58:39.980Z,22.6
2018-06-23T02:59:30.242Z,22.6
2018-06-23T03:00:20.305Z,22.6
2018-06-23T03:01:10.474Z,22.6
2018-06-23T03:02:00.114Z,22.6
2018-06-23T03:02:50.572Z,22.6
2018-06-23T03:03:40.498Z,22.6
2018-06-23T03:04:29.547Z,22.6
2018-06-23T03:05:20.520Z,22.6
2018-06-23T03:06:11.057Z,22.6
2018-06-23T03:07:00.316Z,22.5
2018-06-23T03:07:51.690Z,22.6
2018-06-23T03:08:41.260Z,22.6
2018-06-23T03:09:31.076Z,22.5
2018-06-23T03:10:21.107Z,22.6
2018-06-23T03:11:10.616Z,22.5
2018-06-23T03:12:01.530Z,22.6
2018-06-23T03:12:51.643Z,22.5
2018-06-23T03:13:41.106Z,22.6
2018-06-23T03:14:30.619Z,22.5
2018-06-23T03:15:21.411Z,22.5
2018-06-23T03:16:11.280Z,22.5
2018-06-23T03:17:00.492Z,22.5
2018-06-23T03:17:51.683Z,22.5
2018-06-23T03:18:41.511Z,22.5
2018-06-23T03:19:31.871Z,22.5
2018-06-23T03:20:20.999Z,22.5
2018-06-23T03:21:11.986Z,22.5
2018-06-23T03:22:01.427Z,22.5
2018-06-23T03:22:51.746Z,22.5
2018-06-23T03:23:42.563Z,22.5
2018-06-23T03:24:31.327Z,22.5
2018-06-23T03:25:22.133Z,22.5
2018-06-23T03:26:12.007Z,22.5
2018-06-23T03:27:02.378Z,22.5
2018-06-23T03:27:51.848Z,22.5
2018-06-23T03:28:42.469Z,22.5
2018-06-23T03:29:31.713Z,22.5
2018-06-23T03:30:22.955Z,22.5
2018-06-23T03:31:12.785Z,22.5
2018-06-23T03:32:02.516Z,22.4
2018-06-23T03:32:52.286Z,22.4
2018-06-23T03:33:42.038Z,22.5
2018-06-23T03:34:32.365Z,22.5
2018-06-23T03:35:22.725Z,22.5
2018-06-23T03:36:12.780Z,22.5
2018-06-23T03:37:02.088Z,22.4
2018-06-23T03:37:53.518Z,22.5
2018-06-23T03:38:43.483Z,22.5
2018-06-23T03:39:32.715Z,22.5
2018-06-23T03:40:23.066Z,22.4
2018-06-23T03:41:13.712Z,22.4
2018-06-23T03:42:02.910Z,22.4
2018-06-23T03:42:54.015Z,22.4
2018-06-23T03:43:42.882Z,22.5
2018-06-23T03:44:33.369Z,22.5
2018-06-23T03:45:23.704Z,22.4
2018-06-23T03:46:12.960Z,22.5
2018-06-23T03:47:04.147Z,22.4
2018-06-23T03:47:54.238Z,22.4
2018-06-23T03:48:43.453Z,22.4
2018-06-23T03:49:34.316Z,22.4
2018-06-23T03:50:24.121Z,22.5
2018-06-23T03:51:14.232Z,22.5
2018-06-23T03:52:03.438Z,22.5
2018-06-23T03:52:54.009Z,22.5
2018-06-23T03:53:44.066Z,22.5
2018-06-23T03:54:34.425Z,22.4
2018-06-23T03:55:24.775Z,22.4
2018-06-23T03:56:14.570Z,22.5
2018-06-23T03:57:04.331Z,22.4
2018-06-23T03:57:54.380Z,22.5
2018-06-23T03:58:45.045Z,22.5
2018-06-23T03:59:34.808Z,22.5
2018-06-23T04:00:24.610Z,22.5
2018-06-23T04:01:14.953Z,22.4
2018-06-23T04:02:05.275Z,22.5
2018-06-23T04:02:54.817Z,22.4
2018-06-23T04:03:45.410Z,22.5
2018-06-23T04:04:34.915Z,22.4
2018-06-23T04:05:25.560Z,22.4
2018-06-23T04:06:14.757Z,22.4
2018-06-23T04:07:05.250Z,22.4
2018-06-23T04:07:55.132Z,22.4
2018-06-23T04:08:44.944Z,22.4
2018-06-23T04:09:35.553Z,22.4
2018-06-23T04:10:25.882Z,22.4
2018-06-23T04:11:15.146Z,22.4
2018-06-23T04:12:05.731Z,22.4
2018-06-23T04:12:55.545Z,22.4
2018-06-23T04:13:45.854Z,22.4
2018-06-23T04:14:35.952Z,22.4
2018-06-23T04:15:25.991Z,22.4
2018-06-23T04:16:16.790Z,22.4
2018-06-23T04:17:06.946Z,22.4
2018-06-23T04:17:56.211Z,22.4
2018-06-23T04:18:46.414Z,22.4
2018-06-23T04:19:36.327Z,22.4
2018-06-23T04:20:26.085Z,22.4
2018-06-23T04:21:16.190Z,22.4
2018-06-23T04:22:06.974Z,22.4
2018-06-23T04:22:56.534Z,22.4
2018-06-23T04:23:46.365Z,22.4
2018-06-23T04:24:35.845Z,22.4
2018-06-23T04:25:25.877Z,22.4
2018-06-23T04:26:17.017Z,22.4
2018-06-23T04:27:07.360Z,22.4
2018-06-23T04:27:57.655Z,22.4
2018-06-23T04:28:47.405Z,22.4
2018-06-23T04:29:37.292Z,22.4
2018-06-23T04:30:27.099Z,22.4
2018-06-23T04:31:16.885Z,22.4
2018-06-23T04:32:08.064Z,22.4
2018-06-23T04:32:57.739Z,22.4
2018-06-23T04:33:46.827Z,22.4
2018-06-23T04:34:37.929Z,22.4
2018-06-23T04:35:27.497Z,22.4
2018-06-23T04:36:17.838Z,22.4
2018-06-23T04:37:07.604Z,22.4
2018-06-23T04:37:57.472Z,22.4
2018-06-23T04:38:47.811Z,22.4
2018-06-23T04:39:36.978Z,22.4
2018-06-23T04:40:27.659Z,22.4
2018-06-23T04:41:18.687Z,22.4
2018-06-23T04:42:08.777Z,22.4
2018-06-23T04:42:58.354Z,22.4
2018-06-23T04:43:47.797Z,22.4
2018-06-23T04:44:38.779Z,22.4
2018-06-23T04:45:28.452Z,22.4
2018-06-23T04:46:18.504Z,22.4
2018-06-23T04:47:08.286Z,22.4
2018-06-23T04:47:58.592Z,22.4
2018-06-23T04:48:49.276Z,22.4
2018-06-23T04:49:38.506Z,22.4
2018-06-23T04:50:28.805Z,22.4
2018-06-23T04:51:19.176Z,22.4
2018-06-23T04:52:08.922Z,22.4
2018-06-23T04:52:59.023Z,22.4
2018-06-23T04:53:49.054Z,22.4
2018-06-23T04:54:38.876Z,22.4
2018-06-23T04:55:29.454Z,22.4
2018-06-23T04:56:19.781Z,22.4
2018-06-23T04:57:09.297Z,22.4
2018-06-23T04:58:00.352Z,22.4
2018-06-23T04:58:49.190Z,22.4
2018-06-23T04:59:40.108Z,22.4
2018-06-23T05:00:30.666Z,22.4
2018-06-23T05:01:19.405Z,22.3
2018-06-23T05:02:10.220Z,22.3
2018-06-23T05:02:59.742Z,22.3
2018-06-23T05:03:50.097Z,22.3
2018-06-23T05:04:38.753Z,22.3
2018-06-23T05:05:29.683Z,22.3
2018-06-23T05:06:19.540Z,22.3
2018-06-23T05:07:09.869Z,22.3
2018-06-23T05:07:59.621Z,22.3
2018-06-23T05:08:49.824Z,22.2
2018-06-23T05:09:40.347Z,22.2
2018-06-23T05:10:29.282Z,22.2
2018-06-23T05:11:19.627Z,22.2
2018-06-23T05:12:10.495Z,22.2
2018-06-23T05:12:59.960Z,22.1
2018-06-23T05:13:50.630Z,22.1
2018-06-23T05:14:40.425Z,22.1
2018-06-23T05:15:29.991Z,22.1
2018-06-23T05:16:21.353Z,22.1
2018-06-23T05:17:11.120Z,22.1
2018-06-23T05:18:00.920Z,22.1
2018-06-23T05:18:50.945Z,22.1
2018-06-23T05:19:39.687Z,22.1
2018-06-23T05:20:30.959Z,22.1
2018-06-23T05:21:21.723Z,22.1
2018-06-23T05:22:10.744Z,22.1
2018-06-23T05:23:00.802Z,22.1
2018-06-23T05:23:51.414Z,22.1
2018-06-23T05:24:41.205Z,22.1
2018-06-23T05:25:30.661Z,22.1
2018-06-23T05:26:21.332Z,22.1
2018-06-23T05:27:10.885Z,22
2018-06-23T05:28:01.677Z,22.1
2018-06-23T05:28:51.558Z,22.1
2018-06-23T05:29:41.023Z,22.1
2018-06-23T05:30:32.096Z,22
2018-06-23T05:31:21.985Z,22
2018-06-23T05:32:11.165Z,22
2018-06-23T05:33:01.288Z,22
2018-06-23T05:33:51.337Z,22
2018-06-23T05:34:41.680Z,22
2018-06-23T05:35:31.767Z,22
2018-06-23T05:36:22.360Z,22
2018-06-23T05:37:12.522Z,22
2018-06-23T05:38:02.243Z,22
2018-06-23T05:38:52.528Z,22
2018-06-23T05:39:41.801Z,22
2018-06-23T05:40:32.151Z,22
2018-06-23T05:41:22.498Z,22
2018-06-23T05:42:11.412Z,22
2018-06-23T05:43:02.610Z,22
2018-06-23T05:43:52.421Z,21.9
2018-06-23T05:44:41.944Z,22
2018-06-23T05:45:32.794Z,21.9
2018-06-23T05:46:22.316Z,21.9
2018-06-23T05:47:13.200Z,21.9
2018-06-23T05:48:02.943Z,21.9
2018-06-23T05:48:53.361Z,21.9
2018-06-23T05:49:43.847Z,21.9
2018-06-23T05:50:32.504Z,21.9
2018-06-23T05:51:24.908Z,21.9
2018-06-23T05:52:13.544Z,21.9
2018-06-23T05:53:03.796Z,22
2018-06-23T05:53:54.163Z,21.9
2018-06-23T05:54:43.650Z,22
2018-06-23T05:55:33.787Z,22
2018-06-23T05:56:24.394Z,22
2018-06-23T05:57:14.415Z,22
2018-06-23T05:58:03.357Z,22
2018-06-23T05:58:54.525Z,22
2018-06-23T05:59:44.638Z,22
2018-06-23T06:00:34.405Z,22
2018-06-23T06:01:23.862Z,22
2018-06-23T06:02:14.547Z,22
2018-06-23T06:03:04.571Z,21.9
2018-06-23T06:03:54.652Z,21.9
2018-06-23T06:04:44.787Z,21.8
2018-06-23T06:05:34.480Z,21.8
2018-06-23T06:06:24.849Z,21.8
2018-06-23T06:07:15.193Z,21.8
2018-06-23T06:08:05.231Z,21.8
2018-06-23T06:08:55.291Z,21.8
2018-06-23T06:09:45.071Z,21.8
2018-06-23T06:10:34.560Z,21.8
2018-06-23T06:11:25.200Z,21.8
2018-06-23T06:12:15.290Z,21.8
2018-06-23T06:13:05.341Z,21.8
2018-06-23T06:13:55.688Z,21.8
2018-06-23T06:14:45.174Z,21.8
2018-06-23T06:15:35.276Z,21.8
2018-06-23T06:16:25.556Z,21.8
2018-06-23T06:17:15.903Z,21.8
2018-06-23T06:18:05.704Z,21.8
2018-06-23T06:18:55.455Z,21.8
2018-06-23T06:19:46.083Z,21.8
2018-06-23T06:20:35.893Z,21.8
2018-06-23T06:21:25.940Z,21.8
2018-06-23T06:22:15.448Z,21.8
2018-06-23T06:23:05.510Z,21.8
2018-06-23T06:23:57.629Z,21.8
2018-06-23T06:24:46.150Z,21.8
2018-06-23T06:25:35.433Z,21.8
2018-06-23T06:26:26.302Z,21.8
2018-06-23T06:27:16.668Z,21.8
2018-06-23T06:28:06.414Z,21.8
2018-06-23T06:28:56.647Z,21.8
2018-06-23T06:29:45.774Z,21.8
2018-06-23T06:30:36.931Z,21.8
2018-06-23T06:31:26.968Z,21.8
2018-06-23T06:32:16.213Z,21.8
2018-06-23T06:33:06.568Z,21.8
2018-06-23T06:33:56.653Z,21.8
2018-06-23T06:34:47.273Z,21.8
2018-06-23T06:35:37.292Z,21.8
2018-06-23T06:36:26.531Z,21.8
2018-06-23T06:37:16.620Z,21.8
2018-06-23T06:38:06.408Z,21.8
2018-06-23T06:38:57.623Z,21.8
2018-06-23T06:39:47.623Z,21.8
2018-06-23T06:40:37.752Z,21.8
2018-06-23T06:41:27.743Z,21.8
2018-06-23T06:42:16.943Z,21.8
2018-06-23T06:43:07.590Z,21.8
2018-06-23T06:43:57.396Z,21.8
2018-06-23T06:44:47.878Z,21.8
2018-06-23T06:45:37.545Z,21.8
2018-06-23T06:46:27.345Z,21.8
2018-06-23T06:47:17.166Z,21.8
2018-06-23T06:48:07.687Z,21.8
2018-06-23T06:48:57.452Z,21.8
2018-06-23T06:49:47.284Z,21.8
2018-06-23T06:50:37.633Z,21.8
2018-06-23T06:51:27.663Z,21.8
2018-06-23T06:52:18.350Z,21.8
2018-06-23T06:53:07.786Z,21.8
2018-06-23T06:53:58.678Z,21.8
2018-06-23T06:54:48.533Z,21.8
2018-06-23T06:55:38.787Z,21.8
2018-06-23T06:56:28.667Z,21.8
2018-06-23T06:57:19.877Z,21.8
2018-06-23T06:58:08.731Z,21.8
2018-06-23T06:58:59.025Z,21.8
2018-06-23T06:59:48.387Z,21.8
2018-06-23T07:00:38.654Z,21.8
2018-06-23T07:01:28.724Z,21.8
2018-06-23T07:02:18.765Z,21.8
2018-06-23T07:03:08.850Z,21.8
2018-06-23T07:03:59.155Z,21.9
2018-06-23T07:04:49.508Z,21.8
2018-06-23T07:05:39.576Z,21.9
2018-06-23T07:06:28.834Z,21.8
2018-06-23T07:07:19.702Z,21.9
2018-06-23T07:08:09.487Z,21.9
2018-06-23T07:09:00.311Z,21.9
2018-06-23T07:09:49.399Z,21.9
2018-06-23T07:10:39.405Z,21.9
2018-06-23T07:11:29.188Z,21.9
2018-06-23T07:12:20.117Z,21.9
2018-06-23T07:13:10.175Z,21.9
2018-06-23T07:13:59.921Z,21.9
2018-06-23T07:14:49.736Z,21.9
2018-06-23T07:15:41.279Z,21.9
2018-06-23T07:16:29.836Z,21.9
2018-06-23T07:17:20.481Z,21.9
2018-06-23T07:18:10.523Z,21.9
2018-06-23T07:19:00.554Z,21.9
2018-06-23T07:19:50.044Z,21.9
2018-06-23T07:20:39.814Z,21.9
2018-06-23T07:21:30.464Z,21.9
2018-06-23T07:22:20.285Z,21.9
2018-06-23T07:23:10.305Z,21.9
2018-06-23T07:24:02.996Z,21.9
2018-06-23T07:24:50.233Z,21.9
2018-06-23T07:25:39.926Z,21.9
2018-06-23T07:26:30.843Z,21.9
2018-06-23T07:27:20.691Z,21.9
2018-06-23T07:28:10.696Z,21.9
2018-06-23T07:29:01.288Z,21.9
2018-06-23T07:29:50.798Z,21.9
2018-06-23T07:30:41.728Z,21.9
2018-06-23T07:31:30.917Z,21.9
2018-06-23T07:32:21.302Z,21.9
2018-06-23T07:33:11.380Z,21.9
2018-06-23T07:34:01.109Z,21.9
2018-06-23T07:34:53.263Z,21.9
2018-06-23T07:35:40.976Z,21.9
2018-06-23T07:36:31.893Z,21.9
2018-06-23T07:37:21.702Z,21.9
2018-06-23T07:38:11.417Z,21.9
2018-06-23T07:39:02.067Z,21.9
2018-06-23T07:39:51.579Z,21.9
2018-06-23T07:40:42.934Z,21.9
2018-06-23T07:41:31.731Z,21.9
2018-06-23T07:42:22.101Z,21.9
2018-06-23T07:43:11.006Z,21.9
2018-06-23T07:44:01.654Z,21.9
2018-06-23T07:44:51.416Z,22
2018-06-23T07:45:41.785Z,21.9
2018-06-23T07:46:31.362Z,21.9
2018-06-23T07:47:22.851Z,22
2018-06-23T07:48:12.468Z,22
2018-06-23T07:49:02.538Z,21.9
2018-06-23T07:49:52.571Z,22
2018-06-23T07:50:42.750Z,22
2018-06-23T07:51:33.013Z,22
2018-06-23T07:52:22.780Z,22
2018-06-23T07:53:11.769Z,22
2018-06-23T07:54:02.354Z,22
2018-06-23T07:54:52.982Z,22
2018-06-23T07:55:43.085Z,22
2018-06-23T07:56:33.112Z,22
2018-06-23T07:57:23.438Z,22
2018-06-23T07:58:12.630Z,22
2018-06-23T07:59:02.973Z,22
2018-06-23T07:59:52.515Z,22
2018-06-23T08:00:43.152Z,22
2018-06-23T08:01:33.547Z,22.1
2018-06-23T08:02:23.499Z,22.1
2018-06-23T08:03:13.605Z,22
2018-06-23T08:04:03.681Z,22
2018-06-23T08:04:53.672Z,22
2018-06-23T08:05:43.226Z,22
2018-06-23T08:06:33.865Z,22
2018-06-23T08:07:23.627Z,22
2018-06-23T08:08:14.241Z,22.1
2018-06-23T08:09:03.805Z,22.1
2018-06-23T08:09:53.518Z,22
2018-06-23T08:10:44.160Z,22.1
2018-06-23T08:11:34.231Z,22
2018-06-23T08:12:24.045Z,22
2018-06-23T08:13:14.563Z,22
2018-06-23T08:14:04.411Z,22.1
2018-06-23T08:14:54.443Z,22
2018-06-23T08:15:44.198Z,22.1
2018-06-23T08:16:34.829Z,22.1
2018-06-23T08:17:24.703Z,22
2018-06-23T08:18:14.970Z,22.1
2018-06-23T08:19:04.457Z,22
2018-06-23T08:19:54.587Z,22
2018-06-23T08:20:44.086Z,22.1
2018-06-23T08:21:34.978Z,22.1
2018-06-23T08:22:24.990Z,22
2018-06-23T08:23:14.264Z,22.1
2018-06-23T08:24:04.957Z,22.1
2018-06-23T08:24:55.744Z,22.1
2018-06-23T08:25:45.066Z,22.1
2018-06-23T08:26:37.190Z,22.1
2018-06-23T08:27:25.671Z,22.1
2018-06-23T08:28:15.285Z,22.1
2018-06-23T08:29:05.483Z,22.1
2018-06-23T08:29:55.921Z,22.1
2018-06-23T08:30:45.629Z,22.1
2018-06-23T08:31:35.752Z,22
2018-06-23T08:32:25.775Z,22
2018-06-23T08:33:15.804Z,21.9
2018-06-23T08:34:05.858Z,21.9
2018-06-23T08:34:56.180Z,21.9
2018-06-23T08:35:45.441Z,21.9
2018-06-23T08:36:36.063Z,21.9
2018-06-23T08:37:25.952Z,21.9
2018-06-23T08:38:16.162Z,21.8
2018-06-23T08:39:06.283Z,21.8
2018-06-23T08:39:56.586Z,21.8
2018-06-23T08:40:46.368Z,21.9
2018-06-23T08:41:36.690Z,21.9
2018-06-23T08:42:26.220Z,21.9
2018-06-23T08:43:16.827Z,21.9
2018-06-23T08:44:06.631Z,21.9
2018-06-23T08:44:56.693Z,21.9
2018-06-23T08:45:46.769Z,21.9
2018-06-23T08:46:37.095Z,21.9
2018-06-23T08:47:26.614Z,21.9
2018-06-23T08:48:17.264Z,21.9
2018-06-23T08:49:07.949Z,21.9
2018-06-23T08:49:56.829Z,21.9
2018-06-23T08:50:46.874Z,21.9
2018-06-23T08:51:36.935Z,22
2018-06-23T08:52:26.978Z,22
2018-06-23T08:53:17.327Z,22
2018-06-23T08:54:06.512Z,22
2018-06-23T08:54:57.461Z,22
2018-06-23T08:55:47.757Z,22.1
2018-06-23T08:56:37.299Z,22.1
2018-06-23T08:57:27.906Z,22.1
2018-06-23T08:58:17.136Z,22.1
2018-06-23T08:59:07.246Z,22.1
2018-06-23T08:59:57.543Z,22.1
2018-06-23T09:00:48.145Z,22.1
2018-06-23T09:01:38.240Z,22.1
2018-06-23T09:02:28.297Z,22.1
2018-06-23T09:03:17.796Z,22.1
2018-06-23T09:04:08.172Z,22.1
2018-06-23T09:04:58.453Z,22.1
2018-06-23T09:05:48.588Z,22.1
2018-06-23T09:06:38.002Z,22.1
2018-06-23T09:07:27.831Z,22.1
2018-06-23T09:08:18.175Z,22.1
2018-06-23T09:09:08.836Z,22.1
2018-06-23T09:09:57.815Z,22.1
2018-06-23T09:10:47.499Z,22.1
2018-06-23T09:11:38.977Z,22.1
2018-06-23T09:12:29.147Z,22.1
2018-06-23T09:13:18.590Z,22.1
2018-06-23T09:14:08.861Z,22.2
2018-06-23T09:14:58.999Z,22.1
2018-06-23T09:15:49.276Z,22.2
2018-06-23T09:16:39.421Z,22.2
2018-06-23T09:17:28.918Z,22.2
2018-06-23T09:18:18.665Z,22.2
2018-06-23T09:19:08.714Z,22.2
2018-06-23T09:19:59.623Z,22.2
2018-06-23T09:20:49.677Z,22.2
2018-06-23T09:21:38.616Z,22.2
2018-06-23T09:22:29.303Z,22.2
2018-06-23T09:23:19.115Z,22.2
2018-06-23T09:24:09.925Z,22.2
2018-06-23T09:24:59.229Z,22.2
2018-06-23T09:25:50.253Z,22.2
2018-06-23T09:26:40.155Z,22.2
2018-06-23T09:27:29.856Z,22.2
2018-06-23T09:28:19.651Z,22.2
2018-06-23T09:29:09.991Z,22.2
2018-06-23T09:30:00.093Z,22.2
2018-06-23T09:30:49.585Z,22.3
2018-06-23T09:31:40.189Z,22.2
2018-06-23T09:32:30.545Z,22.2
2018-06-23T09:33:20.636Z,22.3
2018-06-23T09:34:10.407Z,22.2
2018-06-23T09:35:00.177Z,22.3
2018-06-23T09:35:50.822Z,22.3
2018-06-23T09:36:40.094Z,22.3
2018-06-23T09:37:30.642Z,22.3
2018-06-23T09:38:20.429Z,22.3
2018-06-23T09:39:10.751Z,22.3
2018-06-23T09:40:00.359Z,22.3
2018-06-23T09:40:50.371Z,22.3
2018-06-23T09:41:39.621Z,22.3
2018-06-23T09:42:29.904Z,22.3
2018-06-23T09:43:20.792Z,22.3
2018-06-23T09:44:10.885Z,22.3
2018-06-23T09:45:00.135Z,22.3
2018-06-23T09:45:52.139Z,22.3
2018-06-23T09:46:40.782Z,22.3
2018-06-23T09:47:31.156Z,22.2
2018-06-23T09:48:21.172Z,22.3
2018-06-23T09:49:10.824Z,22.3
2018-06-23T09:50:01.064Z,22.3
2018-06-23T09:50:51.396Z,22.3
2018-06-23T09:51:40.618Z,22.3
2018-06-23T09:52:31.536Z,22.3
2018-06-23T09:53:20.730Z,22.3
2018-06-23T09:54:11.651Z,22.3
2018-06-23T09:55:01.978Z,22.3
2018-06-23T09:55:52.059Z,22.3
2018-06-23T09:56:41.585Z,22.2
2018-06-23T09:57:31.619Z,22.3
2018-06-23T09:58:21.699Z,22.3
2018-06-23T09:59:12.024Z,22.3
2018-06-23T10:00:02.622Z,22.3
2018-06-23T10:00:52.171Z,22.3
2018-06-23T10:01:41.933Z,22.3
2018-06-23T10:02:32.291Z,22.3
2018-06-23T10:03:23.031Z,22.3
2018-06-23T10:04:12.417Z,22.3
2018-06-23T10:05:02.202Z,22.3
2018-06-23T10:05:52.353Z,22.3
2018-06-23T10:06:43.118Z,22.3
2018-06-23T10:07:32.612Z,22.3
2018-06-23T10:08:23.051Z,22.3
2018-06-23T10:09:12.816Z,22.3
2018-06-23T10:10:03.101Z,22.3
2018-06-23T10:10:52.890Z,22.3
2018-06-23T10:11:42.435Z,22.3
2018-06-23T10:12:33.094Z,22.3
2018-06-23T10:13:23.367Z,22.3
2018-06-23T10:14:13.439Z,22.3
2018-06-23T10:15:03.175Z,22.3
2018-06-23T10:15:53.588Z,22.3
2018-06-23T10:16:43.139Z,22.3
2018-06-23T10:17:33.669Z,22.3
2018-06-23T10:18:22.823Z,22.3
2018-06-23T10:19:13.244Z,22.3
2018-06-23T10:20:02.867Z,22.3
2018-06-23T10:20:53.931Z,22.3
2018-06-23T10:21:44.146Z,22.3
2018-06-23T10:22:34.336Z,22.3
2018-06-23T10:23:23.835Z,22.3
2018-06-23T10:24:13.661Z,22.3
2018-06-23T10:25:03.958Z,22.3
2018-06-23T10:25:53.998Z,22.3
2018-06-23T10:26:44.056Z,22.3
2018-06-23T10:27:35.041Z,22.3
2018-06-23T10:28:24.483Z,22.3
2018-06-23T10:29:14.548Z,22.3
2018-06-23T10:30:02.979Z,22.3
2018-06-23T10:30:54.129Z,22.3
2018-06-23T10:31:44.726Z,22.3
2018-06-23T10:32:34.587Z,22.3
2018-06-23T10:33:24.823Z,22.3
2018-06-23T10:34:15.212Z,22.3
2018-06-23T10:35:04.201Z,22.3
2018-06-23T10:35:55.072Z,22.3
2018-06-23T10:36:45.128Z,22.3
2018-06-23T10:37:35.458Z,22.3
2018-06-23T10:38:24.944Z,22.3
2018-06-23T10:39:15.345Z,22.3
2018-06-23T10:40:07.153Z,22.3
2018-06-23T10:40:54.882Z,22.3
2018-06-23T10:41:45.496Z,22.3
2018-06-23T10:42:35.836Z,22.3
2018-06-23T10:43:25.048Z,22.3
2018-06-23T10:44:14.911Z,22.3
2018-06-23T10:45:05.529Z,22.3
2018-06-23T10:45:55.095Z,22.3
2018-06-23T10:46:45.133Z,22.3
2018-06-23T10:47:35.085Z,22.3
2018-06-23T10:48:25.259Z,22.3
2018-06-23T10:49:15.599Z,22.3
2018-06-23T10:50:05.856Z,22.3
2018-06-23T10:50:55.632Z,22.3
2018-06-23T10:51:45.131Z,22.3
2018-06-23T10:52:36.057Z,22.3
2018-06-23T10:53:26.373Z,22.3
2018-06-23T10:54:16.254Z,22.3
2018-06-23T10:55:06.263Z,22.3
2018-06-23T10:55:55.763Z,22.3
2018-06-23T10:56:46.640Z,22.3
2018-06-23T10:57:36.163Z,22.2
2018-06-23T10:58:26.492Z,22.1
2018-06-23T10:59:16.354Z,22.1
2018-06-23T11:00:06.343Z,22.1
2018-06-23T11:00:57.196Z,22.1
2018-06-23T11:01:46.721Z,22
2018-06-23T11:02:36.760Z,22
2018-06-23T11:03:27.131Z,22
2018-06-23T11:04:17.194Z,21.9
2018-06-23T11:05:07.964Z,21.9
2018-06-23T11:05:57.671Z,21.9
2018-06-23T11:06:47.179Z,21.9
2018-06-23T11:07:37.193Z,21.8
2018-06-23T11:08:27.502Z,21.8
2018-06-23T11:09:17.553Z,21.8
2018-06-23T11:10:07.185Z,21.8